sensor_id;sensor_type;location;lat;lon;timestamp;P1;durP1;ratioP1;P2;durP2;ratioP2
10114;SDS011;5097;43.260;27.812;2023-02-15T00:02:02;18.63;;;12.93;;
10114;SDS011;5097;43.260;27.812;2023-02-15T00:04:46;15.03;;;11.77;;
10114;SDS011;5097;43.260;27.812;2023-02-15T00:07:30;18.03;;;13.03;;
10114;SDS011;5097;43.260;27.812;2023-02-15T00:10:14;14.60;;;12.03;;
10114;SDS011;5097;43.260;27.812;2023-02-15T00:12:59;13.17;;;10.43;;
10114;SDS011;5097;43.260;27.812;2023-02-15T00:15:45;14.83;;;11.03;;
10114;SDS011;5097;43.260;27.812;2023-02-15T00:18:29;13.47;;;10.37;;
10114;SDS011;5097;43.260;27.812;2023-02-15T00:21:13;16.20;;;12.20;;
10114;SDS011;5097;43.260;27.812;2023-02-15T00:23:58;15.00;;;10.67;;
10114;SDS011;5097;43.260;27.812;2023-02-15T00:26:43;15.13;;;12.07;;
10114;SDS011;5097;43.260;27.812;2023-02-15T00:29:28;17.37;;;14.03;;
10114;SDS011;5097;43.260;27.812;2023-02-15T00:32:14;19.00;;;13.27;;
10114;SDS011;5097;43.260;27.812;2023-02-15T00:34:58;16.40;;;12.20;;
10114;SDS011;5097;43.260;27.812;2023-02-15T00:37:42;15.97;;;12.40;;
10114;SDS011;5097;43.260;27.812;2023-02-15T00:40:26;16.33;;;12.70;;
10114;SDS011;5097;43.260;27.812;2023-02-15T00:43:10;13.53;;;11.17;;
10114;SDS011;5097;43.260;27.812;2023-02-15T00:45:57;18.23;;;12.13;;
10114;SDS011;5097;43.260;27.812;2023-02-15T00:48:43;15.17;;;12.33;;
10114;SDS011;5097;43.260;27.812;2023-02-15T00:51:27;16.13;;;11.87;;
10114;SDS011;5097;43.260;27.812;2023-02-15T00:54:11;16.70;;;12.43;;
10114;SDS011;5097;43.260;27.812;2023-02-15T00:56:55;16.53;;;11.87;;
10114;SDS011;5097;43.260;27.812;2023-02-15T00:59:39;18.33;;;12.63;;
10114;SDS011;5097;43.260;27.812;2023-02-15T01:02:23;15.10;;;11.57;;
10114;SDS011;5097;43.260;27.812;2023-02-15T01:05:09;14.67;;;11.73;;
10114;SDS011;5097;43.260;27.812;2023-02-15T01:07:53;16.73;;;12.77;;
10114;SDS011;5097;43.260;27.812;2023-02-15T01:10:37;18.40;;;13.33;;
10114;SDS011;5097;43.260;27.812;2023-02-15T01:13:21;17.33;;;13.23;;
10114;SDS011;5097;43.260;27.812;2023-02-15T01:16:05;17.23;;;12.97;;
10114;SDS011;5097;43.260;27.812;2023-02-15T01:18:50;15.53;;;12.20;;
10114;SDS011;5097;43.260;27.812;2023-02-15T01:21:36;17.43;;;12.07;;
10114;SDS011;5097;43.260;27.812;2023-02-15T01:24:20;15.37;;;12.07;;
10114;SDS011;5097;43.260;27.812;2023-02-15T01:27:03;14.37;;;11.37;;
10114;SDS011;5097;43.260;27.812;2023-02-15T01:29:47;15.43;;;12.53;;
10114;SDS011;5097;43.260;27.812;2023-02-15T01:32:31;17.07;;;11.80;;
10114;SDS011;5097;43.260;27.812;2023-02-15T01:35:16;18.20;;;12.93;;
10114;SDS011;5097;43.260;27.812;2023-02-15T01:38:02;15.53;;;11.83;;
10114;SDS011;5097;43.260;27.812;2023-02-15T01:40:46;18.33;;;13.10;;
10114;SDS011;5097;43.260;27.812;2023-02-15T01:43:38;17.20;;;12.63;;
10114;SDS011;5097;43.260;27.812;2023-02-15T01:46:26;18.40;;;13.13;;
10114;SDS011;5097;43.260;27.812;2023-02-15T01:49:15;19.10;;;14.40;;
10114;SDS011;5097;43.260;27.812;2023-02-15T01:52:03;18.73;;;13.83;;
10114;SDS011;5097;43.260;27.812;2023-02-15T01:54:48;18.37;;;12.80;;
10114;SDS011;5097;43.260;27.812;2023-02-15T01:57:33;20.77;;;15.67;;
10114;SDS011;5097;43.260;27.812;2023-02-15T02:00:18;18.10;;;13.60;;
10114;SDS011;5097;43.260;27.812;2023-02-15T02:03:03;17.33;;;13.13;;
10114;SDS011;5097;43.260;27.812;2023-02-15T02:05:48;17.17;;;13.30;;
10114;SDS011;5097;43.260;27.812;2023-02-15T02:08:32;17.57;;;12.63;;
10114;SDS011;5097;43.260;27.812;2023-02-15T02:11:18;18.97;;;13.40;;
10114;SDS011;5097;43.260;27.812;2023-02-15T02:14:02;15.77;;;13.40;;
10114;SDS011;5097;43.260;27.812;2023-02-15T02:16:48;21.13;;;14.27;;
10114;SDS011;5097;43.260;27.812;2023-02-15T02:19:58;18.73;;;13.77;;
10114;SDS011;5097;43.260;27.812;2023-02-15T02:23:07;20.90;;;14.87;;
10114;SDS011;5097;43.260;27.812;2023-02-15T02:26:25;17.50;;;13.37;;
10114;SDS011;5097;43.260;27.812;2023-02-15T02:33:19;17.50;;;12.50;;
10114;SDS011;5097;43.260;27.812;2023-02-15T02:36:14;20.43;;;14.40;;
10114;SDS011;5097;43.260;27.812;2023-02-15T02:39:11;18.83;;;14.07;;
10114;SDS011;5097;43.260;27.812;2023-02-15T02:42:01;17.83;;;12.87;;
10114;SDS011;5097;43.260;27.812;2023-02-15T02:44:51;18.33;;;13.30;;
10114;SDS011;5097;43.260;27.812;2023-02-15T02:47:38;20.87;;;13.80;;
10114;SDS011;5097;43.260;27.812;2023-02-15T02:50:29;17.83;;;13.37;;
10114;SDS011;5097;43.260;27.812;2023-02-15T02:53:13;17.03;;;12.43;;
10114;SDS011;5097;43.260;27.812;2023-02-15T02:55:58;20.63;;;13.20;;
10114;SDS011;5097;43.260;27.812;2023-02-15T02:58:50;17.73;;;12.93;;
10114;SDS011;5097;43.260;27.812;2023-02-15T03:01:40;18.43;;;12.63;;
10114;SDS011;5097;43.260;27.812;2023-02-15T03:04:28;16.17;;;12.47;;
10114;SDS011;5097;43.260;27.812;2023-02-15T03:07:18;15.60;;;11.50;;
10114;SDS011;5097;43.260;27.812;2023-02-15T03:10:06;16.20;;;12.30;;
10114;SDS011;5097;43.260;27.812;2023-02-15T03:12:52;16.00;;;12.00;;
10114;SDS011;5097;43.260;27.812;2023-02-15T03:15:36;17.20;;;12.47;;
10114;SDS011;5097;43.260;27.812;2023-02-15T03:18:41;18.23;;;12.40;;
10114;SDS011;5097;43.260;27.812;2023-02-15T03:21:36;16.30;;;11.10;;
10114;SDS011;5097;43.260;27.812;2023-02-15T03:24:34;15.30;;;10.70;;
10114;SDS011;5097;43.260;27.812;2023-02-15T03:27:22;15.80;;;11.37;;
10114;SDS011;5097;43.260;27.812;2023-02-15T03:30:09;12.80;;;10.90;;
10114;SDS011;5097;43.260;27.812;2023-02-15T03:32:56;17.20;;;12.70;;
10114;SDS011;5097;43.260;27.812;2023-02-15T03:35:45;14.40;;;11.47;;
10114;SDS011;5097;43.260;27.812;2023-02-15T03:38:36;18.03;;;12.67;;
10114;SDS011;5097;43.260;27.812;2023-02-15T03:41:29;15.60;;;11.40;;
10114;SDS011;5097;43.260;27.812;2023-02-15T03:44:20;14.23;;;11.60;;
10114;SDS011;5097;43.260;27.812;2023-02-15T03:47:08;17.53;;;12.53;;
10114;SDS011;5097;43.260;27.812;2023-02-15T03:50:00;20.17;;;12.63;;
10114;SDS011;5097;43.260;27.812;2023-02-15T03:53:09;19.73;;;11.93;;
10114;SDS011;5097;43.260;27.812;2023-02-15T03:55:57;14.87;;;11.17;;
10114;SDS011;5097;43.260;27.812;2023-02-15T03:58:43;17.07;;;12.73;;
10114;SDS011;5097;43.260;27.812;2023-02-15T04:01:46;15.80;;;11.93;;
10114;SDS011;5097;43.260;27.812;2023-02-15T04:04:43;13.17;;;10.83;;
10114;SDS011;5097;43.260;27.812;2023-02-15T04:07:29;16.60;;;11.73;;
10114;SDS011;5097;43.260;27.812;2023-02-15T04:10:13;14.97;;;10.40;;
10114;SDS011;5097;43.260;27.812;2023-02-15T04:13:14;17.07;;;11.77;;
10114;SDS011;5097;43.260;27.812;2023-02-15T04:15:59;15.70;;;10.77;;
10114;SDS011;5097;43.260;27.812;2023-02-15T04:18:46;13.37;;;10.73;;
10114;SDS011;5097;43.260;27.812;2023-02-15T04:21:47;14.70;;;10.77;;
10114;SDS011;5097;43.260;27.812;2023-02-15T04:24:48;14.53;;;10.97;;
10114;SDS011;5097;43.260;27.812;2023-02-15T04:27:51;15.93;;;10.30;;
10114;SDS011;5097;43.260;27.812;2023-02-15T04:30:35;14.07;;;11.00;;
10114;SDS011;5097;43.260;27.812;2023-02-15T04:33:20;18.27;;;11.13;;
10114;SDS011;5097;43.260;27.812;2023-02-15T04:36:04;14.97;;;10.23;;
10114;SDS011;5097;43.260;27.812;2023-02-15T04:38:48;15.87;;;11.40;;
10114;SDS011;5097;43.260;27.812;2023-02-15T04:41:32;16.50;;;10.87;;
10114;SDS011;5097;43.260;27.812;2023-02-15T04:44:16;15.53;;;11.40;;
10114;SDS011;5097;43.260;27.812;2023-02-15T04:47:00;16.53;;;11.03;;
10114;SDS011;5097;43.260;27.812;2023-02-15T04:49:45;15.17;;;10.70;;
10114;SDS011;5097;43.260;27.812;2023-02-15T04:52:29;17.60;;;12.17;;
10114;SDS011;5097;43.260;27.812;2023-02-15T04:55:13;18.03;;;11.50;;
10114;SDS011;5097;43.260;27.812;2023-02-15T04:57:57;16.43;;;11.63;;
10114;SDS011;5097;43.260;27.812;2023-02-15T05:00:41;21.97;;;14.53;;
10114;SDS011;5097;43.260;27.812;2023-02-15T05:03:25;15.47;;;10.67;;
10114;SDS011;5097;43.260;27.812;2023-02-15T05:06:10;15.50;;;10.93;;
10114;SDS011;5097;43.260;27.812;2023-02-15T05:08:54;16.83;;;11.77;;
10114;SDS011;5097;43.260;27.812;2023-02-15T05:11:41;14.63;;;10.70;;
10114;SDS011;5097;43.260;27.812;2023-02-15T05:14:25;14.10;;;9.97;;
10114;SDS011;5097;43.260;27.812;2023-02-15T05:17:09;14.27;;;11.10;;
10114;SDS011;5097;43.260;27.812;2023-02-15T05:19:54;16.93;;;11.13;;
10114;SDS011;5097;43.260;27.812;2023-02-15T05:22:39;17.90;;;11.13;;
10114;SDS011;5097;43.260;27.812;2023-02-15T05:25:23;16.20;;;11.60;;
10114;SDS011;5097;43.260;27.812;2023-02-15T05:28:26;16.70;;;11.37;;
10114;SDS011;5097;43.260;27.812;2023-02-15T05:31:11;14.57;;;10.53;;
10114;SDS011;5097;43.260;27.812;2023-02-15T05:33:57;13.27;;;10.93;;
10114;SDS011;5097;43.260;27.812;2023-02-15T05:36:41;17.10;;;10.87;;
10114;SDS011;5097;43.260;27.812;2023-02-15T05:39:26;15.37;;;11.07;;
10114;SDS011;5097;43.260;27.812;2023-02-15T05:42:10;15.67;;;10.40;;
10114;SDS011;5097;43.260;27.812;2023-02-15T05:44:54;16.20;;;11.93;;
10114;SDS011;5097;43.260;27.812;2023-02-15T05:47:38;15.67;;;11.47;;
10114;SDS011;5097;43.260;27.812;2023-02-15T05:50:21;15.07;;;11.87;;
10114;SDS011;5097;43.260;27.812;2023-02-15T05:53:05;17.67;;;11.83;;
10114;SDS011;5097;43.260;27.812;2023-02-15T05:55:50;14.73;;;10.87;;
10114;SDS011;5097;43.260;27.812;2023-02-15T05:58:36;16.90;;;11.33;;
10114;SDS011;5097;43.260;27.812;2023-02-15T06:01:21;15.37;;;10.57;;
10114;SDS011;5097;43.260;27.812;2023-02-15T06:04:05;17.53;;;11.50;;
10114;SDS011;5097;43.260;27.812;2023-02-15T06:06:48;17.33;;;11.50;;
10114;SDS011;5097;43.260;27.812;2023-02-15T06:09:32;16.13;;;11.10;;
10114;SDS011;5097;43.260;27.812;2023-02-15T06:12:17;14.30;;;10.17;;
10114;SDS011;5097;43.260;27.812;2023-02-15T06:15:01;15.70;;;10.83;;
10114;SDS011;5097;43.260;27.812;2023-02-15T06:17:46;12.77;;;9.63;;
10114;SDS011;5097;43.260;27.812;2023-02-15T06:20:30;18.10;;;11.73;;
10114;SDS011;5097;43.260;27.812;2023-02-15T06:23:14;16.17;;;11.67;;
10114;SDS011;5097;43.260;27.812;2023-02-15T06:25:58;12.47;;;10.40;;
10114;SDS011;5097;43.260;27.812;2023-02-15T06:28:44;17.07;;;11.37;;
10114;SDS011;5097;43.260;27.812;2023-02-15T06:31:28;17.63;;;9.77;;
10114;SDS011;5097;43.260;27.812;2023-02-15T06:34:12;13.00;;;10.77;;
10114;SDS011;5097;43.260;27.812;2023-02-15T06:36:56;13.00;;;9.33;;
10114;SDS011;5097;43.260;27.812;2023-02-15T06:39:40;14.13;;;9.73;;
10114;SDS011;5097;43.260;27.812;2023-02-15T06:42:24;13.40;;;10.07;;
10114;SDS011;5097;43.260;27.812;2023-02-15T06:45:10;13.43;;;10.77;;
10114;SDS011;5097;43.260;27.812;2023-02-15T06:47:54;13.17;;;10.90;;
10114;SDS011;5097;43.260;27.812;2023-02-15T06:50:38;12.60;;;9.67;;
10114;SDS011;5097;43.260;27.812;2023-02-15T06:53:22;13.13;;;10.27;;
10114;SDS011;5097;43.260;27.812;2023-02-15T06:56:07;14.33;;;10.43;;
10114;SDS011;5097;43.260;27.812;2023-02-15T06:58:51;15.27;;;10.50;;
10114;SDS011;5097;43.260;27.812;2023-02-15T07:01:37;14.10;;;10.23;;
10114;SDS011;5097;43.260;27.812;2023-02-15T07:04:21;13.90;;;9.27;;
10114;SDS011;5097;43.260;27.812;2023-02-15T07:07:07;11.43;;;9.50;;
10114;SDS011;5097;43.260;27.812;2023-02-15T07:09:52;13.17;;;9.63;;
10114;SDS011;5097;43.260;27.812;2023-02-15T07:12:36;15.10;;;10.97;;
10114;SDS011;5097;43.260;27.812;2023-02-15T07:15:27;13.60;;;9.83;;
10114;SDS011;5097;43.260;27.812;2023-02-15T07:18:13;14.03;;;10.43;;
10114;SDS011;5097;43.260;27.812;2023-02-15T07:20:57;12.57;;;10.37;;
10114;SDS011;5097;43.260;27.812;2023-02-15T07:23:41;17.20;;;10.90;;
10114;SDS011;5097;43.260;27.812;2023-02-15T07:26:25;16.27;;;11.53;;
10114;SDS011;5097;43.260;27.812;2023-02-15T07:29:09;15.27;;;11.33;;
10114;SDS011;5097;43.260;27.812;2023-02-15T07:31:53;11.53;;;9.13;;
10114;SDS011;5097;43.260;27.812;2023-02-15T07:34:41;15.83;;;11.43;;
10114;SDS011;5097;43.260;27.812;2023-02-15T07:37:25;13.77;;;10.03;;
10114;SDS011;5097;43.260;27.812;2023-02-15T07:40:10;14.70;;;10.47;;
10114;SDS011;5097;43.260;27.812;2023-02-15T07:42:56;13.60;;;10.63;;
10114;SDS011;5097;43.260;27.812;2023-02-15T07:45:41;14.27;;;9.80;;
10114;SDS011;5097;43.260;27.812;2023-02-15T07:48:26;15.03;;;10.20;;
10114;SDS011;5097;43.260;27.812;2023-02-15T07:51:12;15.67;;;11.07;;
10114;SDS011;5097;43.260;27.812;2023-02-15T07:54:01;17.47;;;10.03;;
10114;SDS011;5097;43.260;27.812;2023-02-15T07:56:45;12.63;;;9.90;;
10114;SDS011;5097;43.260;27.812;2023-02-15T07:59:29;12.07;;;9.00;;
10114;SDS011;5097;43.260;27.812;2023-02-15T08:02:13;15.47;;;10.60;;
10114;SDS011;5097;43.260;27.812;2023-02-15T08:04:59;11.43;;;8.33;;
10114;SDS011;5097;43.260;27.812;2023-02-15T08:07:45;14.53;;;9.50;;
10114;SDS011;5097;43.260;27.812;2023-02-15T08:10:29;13.50;;;9.67;;
10114;SDS011;5097;43.260;27.812;2023-02-15T08:13:27;12.87;;;9.60;;
10114;SDS011;5097;43.260;27.812;2023-02-15T08:16:11;10.93;;;9.00;;
10114;SDS011;5097;43.260;27.812;2023-02-15T08:18:55;13.23;;;9.43;;
10114;SDS011;5097;43.260;27.812;2023-02-15T08:21:41;10.10;;;8.83;;
10114;SDS011;5097;43.260;27.812;2023-02-15T08:24:30;11.70;;;9.40;;
10114;SDS011;5097;43.260;27.812;2023-02-15T08:27:16;15.43;;;10.30;;
10114;SDS011;5097;43.260;27.812;2023-02-15T08:30:00;9.90;;;8.10;;
10114;SDS011;5097;43.260;27.812;2023-02-15T08:32:44;11.77;;;9.00;;
10114;SDS011;5097;43.260;27.812;2023-02-15T08:35:28;12.00;;;9.17;;
10114;SDS011;5097;43.260;27.812;2023-02-15T08:38:12;12.80;;;8.73;;
10114;SDS011;5097;43.260;27.812;2023-02-15T08:40:59;12.10;;;9.27;;
10114;SDS011;5097;43.260;27.812;2023-02-15T08:43:53;12.67;;;9.63;;
10114;SDS011;5097;43.260;27.812;2023-02-15T08:46:39;11.40;;;8.60;;
10114;SDS011;5097;43.260;27.812;2023-02-15T08:49:24;9.27;;;7.73;;
10114;SDS011;5097;43.260;27.812;2023-02-15T08:52:08;11.27;;;8.63;;
10114;SDS011;5097;43.260;27.812;2023-02-15T08:54:52;10.23;;;8.27;;
10114;SDS011;5097;43.260;27.812;2023-02-15T08:57:37;12.37;;;8.63;;
10114;SDS011;5097;43.260;27.812;2023-02-15T09:00:26;14.63;;;9.27;;
10114;SDS011;5097;43.260;27.812;2023-02-15T09:03:11;10.10;;;8.70;;
10114;SDS011;5097;43.260;27.812;2023-02-15T09:05:58;11.67;;;8.60;;
10114;SDS011;5097;43.260;27.812;2023-02-15T09:08:42;10.87;;;8.17;;
10114;SDS011;5097;43.260;27.812;2023-02-15T09:11:27;12.90;;;8.73;;
10114;SDS011;5097;43.260;27.812;2023-02-15T09:14:14;12.17;;;8.70;;
10114;SDS011;5097;43.260;27.812;2023-02-15T09:16:59;13.40;;;8.93;;
10114;SDS011;5097;43.260;27.812;2023-02-15T09:19:43;16.97;;;10.30;;
10114;SDS011;5097;43.260;27.812;2023-02-15T09:22:27;11.83;;;9.07;;
10114;SDS011;5097;43.260;27.812;2023-02-15T09:25:12;12.23;;;8.87;;
10114;SDS011;5097;43.260;27.812;2023-02-15T09:27:55;9.00;;;8.07;;
10114;SDS011;5097;43.260;27.812;2023-02-15T09:30:41;11.77;;;9.10;;
10114;SDS011;5097;43.260;27.812;2023-02-15T09:33:25;12.40;;;7.97;;
10114;SDS011;5097;43.260;27.812;2023-02-15T09:36:13;11.70;;;8.50;;
10114;SDS011;5097;43.260;27.812;2023-02-15T09:38:59;9.30;;;6.97;;
10114;SDS011;5097;43.260;27.812;2023-02-15T09:41:54;9.90;;;7.27;;
10114;SDS011;5097;43.260;27.812;2023-02-15T09:45:07;13.70;;;9.87;;
10114;SDS011;5097;43.260;27.812;2023-02-15T09:48:06;11.27;;;8.90;;
10114;SDS011;5097;43.260;27.812;2023-02-15T09:51:19;11.20;;;8.30;;
10114;SDS011;5097;43.260;27.812;2023-02-15T09:54:26;12.47;;;8.03;;
10114;SDS011;5097;43.260;27.812;2023-02-15T09:57:20;9.80;;;8.53;;
10114;SDS011;5097;43.260;27.812;2023-02-15T10:00:12;12.77;;;8.30;;
10114;SDS011;5097;43.260;27.812;2023-02-15T10:03:09;9.63;;;7.40;;
10114;SDS011;5097;43.260;27.812;2023-02-15T10:06:06;10.57;;;8.03;;
10114;SDS011;5097;43.260;27.812;2023-02-15T10:09:15;14.47;;;9.27;;
10114;SDS011;5097;43.260;27.812;2023-02-15T10:12:19;11.80;;;8.50;;
10114;SDS011;5097;43.260;27.812;2023-02-15T10:15:29;10.27;;;7.40;;
10114;SDS011;5097;43.260;27.812;2023-02-15T10:21:35;11.10;;;8.93;;
10114;SDS011;5097;43.260;27.812;2023-02-15T10:24:45;19.53;;;10.57;;
10114;SDS011;5097;43.260;27.812;2023-02-15T10:27:40;9.83;;;7.50;;
10114;SDS011;5097;43.260;27.812;2023-02-15T10:30:31;12.90;;;8.37;;
10114;SDS011;5097;43.260;27.812;2023-02-15T10:33:30;10.63;;;7.97;;
10114;SDS011;5097;43.260;27.812;2023-02-15T10:36:27;12.03;;;9.27;;
10114;SDS011;5097;43.260;27.812;2023-02-15T10:39:25;13.07;;;8.93;;
10114;SDS011;5097;43.260;27.812;2023-02-15T10:42:17;18.90;;;12.60;;
10114;SDS011;5097;43.260;27.812;2023-02-15T10:45:12;10.47;;;9.20;;
10114;SDS011;5097;43.260;27.812;2023-02-15T10:48:12;17.63;;;12.00;;
10114;SDS011;5097;43.260;27.812;2023-02-15T10:51:05;11.27;;;9.00;;
10114;SDS011;5097;43.260;27.812;2023-02-15T10:54:08;12.20;;;8.77;;
10114;SDS011;5097;43.260;27.812;2023-02-15T10:57:02;12.37;;;9.10;;
10114;SDS011;5097;43.260;27.812;2023-02-15T10:59:57;13.17;;;10.10;;
10114;SDS011;5097;43.260;27.812;2023-02-15T11:02:59;11.03;;;8.73;;
10114;SDS011;5097;43.260;27.812;2023-02-15T11:05:58;15.57;;;9.00;;
10114;SDS011;5097;43.260;27.812;2023-02-15T11:08:47;14.33;;;11.70;;
10114;SDS011;5097;43.260;27.812;2023-02-15T11:11:36;10.23;;;8.93;;
10114;SDS011;5097;43.260;27.812;2023-02-15T11:14:27;11.40;;;10.00;;
10114;SDS011;5097;43.260;27.812;2023-02-15T11:17:19;9.43;;;8.50;;
10114;SDS011;5097;43.260;27.812;2023-02-15T11:20:09;11.57;;;9.07;;
10114;SDS011;5097;43.260;27.812;2023-02-15T11:23:00;13.47;;;10.13;;
10114;SDS011;5097;43.260;27.812;2023-02-15T11:25:46;13.07;;;10.33;;
10114;SDS011;5097;43.260;27.812;2023-02-15T11:28:39;16.80;;;12.63;;
10114;SDS011;5097;43.260;27.812;2023-02-15T11:31:30;10.10;;;8.00;;
10114;SDS011;5097;43.260;27.812;2023-02-15T11:34:26;11.33;;;9.70;;
10114;SDS011;5097;43.260;27.812;2023-02-15T11:37:16;10.87;;;8.77;;
10114;SDS011;5097;43.260;27.812;2023-02-15T11:40:06;11.67;;;9.77;;
10114;SDS011;5097;43.260;27.812;2023-02-15T11:43:02;11.43;;;9.20;;
10114;SDS011;5097;43.260;27.812;2023-02-15T11:45:51;12.97;;;8.60;;
10114;SDS011;5097;43.260;27.812;2023-02-15T11:48:36;11.63;;;9.47;;
10114;SDS011;5097;43.260;27.812;2023-02-15T11:51:21;10.43;;;8.70;;
10114;SDS011;5097;43.260;27.812;2023-02-15T11:54:07;13.70;;;11.03;;
10114;SDS011;5097;43.260;27.812;2023-02-15T11:56:52;12.00;;;8.80;;
10114;SDS011;5097;43.260;27.812;2023-02-15T11:59:36;12.93;;;9.47;;
10114;SDS011;5097;43.260;27.812;2023-02-15T12:02:24;11.60;;;9.33;;
10114;SDS011;5097;43.260;27.812;2023-02-15T12:05:13;10.50;;;9.17;;
10114;SDS011;5097;43.260;27.812;2023-02-15T12:08:05;10.40;;;9.33;;
10114;SDS011;5097;43.260;27.812;2023-02-15T12:10:57;12.47;;;10.40;;
10114;SDS011;5097;43.260;27.812;2023-02-15T12:13:56;12.63;;;10.13;;
10114;SDS011;5097;43.260;27.812;2023-02-15T12:16:41;12.27;;;10.30;;
10114;SDS011;5097;43.260;27.812;2023-02-15T12:19:31;11.37;;;10.03;;
10114;SDS011;5097;43.260;27.812;2023-02-15T12:22:21;13.63;;;10.80;;
10114;SDS011;5097;43.260;27.812;2023-02-15T12:25:19;11.17;;;9.17;;
10114;SDS011;5097;43.260;27.812;2023-02-15T12:28:15;12.27;;;9.10;;
10114;SDS011;5097;43.260;27.812;2023-02-15T12:31:07;11.73;;;10.10;;
10114;SDS011;5097;43.260;27.812;2023-02-15T12:34:03;10.27;;;8.40;;
10114;SDS011;5097;43.260;27.812;2023-02-15T12:36:56;14.23;;;10.90;;
10114;SDS011;5097;43.260;27.812;2023-02-15T12:39:51;12.60;;;9.43;;
10114;SDS011;5097;43.260;27.812;2023-02-15T12:42:41;11.10;;;9.93;;
10114;SDS011;5097;43.260;27.812;2023-02-15T12:45:27;14.60;;;11.37;;
10114;SDS011;5097;43.260;27.812;2023-02-15T12:48:14;13.83;;;10.57;;
10114;SDS011;5097;43.260;27.812;2023-02-15T12:51:06;12.90;;;10.53;;
10114;SDS011;5097;43.260;27.812;2023-02-15T12:53:54;14.23;;;10.13;;
10114;SDS011;5097;43.260;27.812;2023-02-15T12:56:38;13.30;;;9.80;;
10114;SDS011;5097;43.260;27.812;2023-02-15T12:59:22;12.90;;;9.90;;
10114;SDS011;5097;43.260;27.812;2023-02-15T13:02:06;14.93;;;10.60;;
10114;SDS011;5097;43.260;27.812;2023-02-15T13:05:10;12.40;;;10.77;;
10114;SDS011;5097;43.260;27.812;2023-02-15T13:08:02;14.03;;;10.67;;
10114;SDS011;5097;43.260;27.812;2023-02-15T13:10:56;13.57;;;9.90;;
10114;SDS011;5097;43.260;27.812;2023-02-15T13:13:47;14.17;;;10.33;;
10114;SDS011;5097;43.260;27.812;2023-02-15T13:16:37;16.13;;;10.40;;
10114;SDS011;5097;43.260;27.812;2023-02-15T13:19:26;14.23;;;12.03;;
10114;SDS011;5097;43.260;27.812;2023-02-15T13:22:16;13.07;;;11.00;;
10114;SDS011;5097;43.260;27.812;2023-02-15T13:25:04;12.33;;;10.97;;
10114;SDS011;5097;43.260;27.812;2023-02-15T13:27:56;13.67;;;11.50;;
10114;SDS011;5097;43.260;27.812;2023-02-15T13:30:44;15.07;;;10.93;;
10114;SDS011;5097;43.260;27.812;2023-02-15T13:33:31;14.27;;;11.67;;
10114;SDS011;5097;43.260;27.812;2023-02-15T13:36:20;12.27;;;9.33;;
10114;SDS011;5097;43.260;27.812;2023-02-15T13:39:18;13.77;;;10.60;;
10114;SDS011;5097;43.260;27.812;2023-02-15T13:42:13;14.73;;;12.03;;
10114;SDS011;5097;43.260;27.812;2023-02-15T13:45:09;14.50;;;11.40;;
10114;SDS011;5097;43.260;27.812;2023-02-15T13:48:09;20.83;;;14.77;;
10114;SDS011;5097;43.260;27.812;2023-02-15T13:51:03;14.23;;;10.70;;
10114;SDS011;5097;43.260;27.812;2023-02-15T13:54:07;18.57;;;13.27;;
10114;SDS011;5097;43.260;27.812;2023-02-15T13:57:08;19.53;;;15.30;;
10114;SDS011;5097;43.260;27.812;2023-02-15T14:00:13;13.77;;;10.90;;
10114;SDS011;5097;43.260;27.812;2023-02-15T14:03:21;13.90;;;10.03;;
10114;SDS011;5097;43.260;27.812;2023-02-15T14:06:43;10.63;;;9.07;;
10114;SDS011;5097;43.260;27.812;2023-02-15T14:09:40;12.13;;;9.90;;
10114;SDS011;5097;43.260;27.812;2023-02-15T14:12:34;14.03;;;10.67;;
10114;SDS011;5097;43.260;27.812;2023-02-15T14:15:31;16.30;;;12.00;;
10114;SDS011;5097;43.260;27.812;2023-02-15T14:18:21;14.37;;;11.70;;
10114;SDS011;5097;43.260;27.812;2023-02-15T14:21:16;9.27;;;8.27;;
10114;SDS011;5097;43.260;27.812;2023-02-15T14:24:09;14.00;;;10.53;;
10114;SDS011;5097;43.260;27.812;2023-02-15T14:27:05;11.43;;;8.57;;
10114;SDS011;5097;43.260;27.812;2023-02-15T14:30:02;10.37;;;9.13;;
10114;SDS011;5097;43.260;27.812;2023-02-15T14:32:59;9.20;;;7.77;;
10114;SDS011;5097;43.260;27.812;2023-02-15T14:35:48;9.33;;;7.23;;
10114;SDS011;5097;43.260;27.812;2023-02-15T14:38:42;9.57;;;7.73;;
10114;SDS011;5097;43.260;27.812;2023-02-15T14:41:36;8.57;;;7.07;;
10114;SDS011;5097;43.260;27.812;2023-02-15T14:44:26;10.30;;;8.17;;
10114;SDS011;5097;43.260;27.812;2023-02-15T14:47:15;10.50;;;8.30;;
10114;SDS011;5097;43.260;27.812;2023-02-15T14:56:32;8.77;;;7.43;;
10114;SDS011;5097;43.260;27.812;2023-02-15T14:59:16;10.90;;;7.70;;
10114;SDS011;5097;43.260;27.812;2023-02-15T15:02:03;9.47;;;8.00;;
10114;SDS011;5097;43.260;27.812;2023-02-15T15:04:59;11.67;;;8.63;;
10114;SDS011;5097;43.260;27.812;2023-02-15T15:07:50;10.73;;;8.47;;
10114;SDS011;5097;43.260;27.812;2023-02-15T15:10:45;15.00;;;10.83;;
10114;SDS011;5097;43.260;27.812;2023-02-15T15:13:36;13.87;;;10.33;;
10114;SDS011;5097;43.260;27.812;2023-02-15T15:16:28;9.00;;;8.10;;
10114;SDS011;5097;43.260;27.812;2023-02-15T15:22:43;22.77;;;12.77;;
10114;SDS011;5097;43.260;27.812;2023-02-15T15:25:42;10.80;;;8.63;;
10114;SDS011;5097;43.260;27.812;2023-02-15T15:31:45;16.23;;;9.37;;
10114;SDS011;5097;43.260;27.812;2023-02-15T15:34:45;16.77;;;9.20;;
10114;SDS011;5097;43.260;27.812;2023-02-15T15:37:50;11.13;;;8.33;;
10114;SDS011;5097;43.260;27.812;2023-02-15T15:41:05;29.70;;;15.27;;
10114;SDS011;5097;43.260;27.812;2023-02-15T15:44:08;42.53;;;19.10;;
10114;SDS011;5097;43.260;27.812;2023-02-15T15:47:20;35.50;;;19.43;;
10114;SDS011;5097;43.260;27.812;2023-02-15T15:50:14;27.97;;;16.03;;
10114;SDS011;5097;43.260;27.812;2023-02-15T15:53:01;16.33;;;11.77;;
10114;SDS011;5097;43.260;27.812;2023-02-15T15:55:46;12.63;;;8.87;;
10114;SDS011;5097;43.260;27.812;2023-02-15T15:58:33;22.87;;;13.17;;
10114;SDS011;5097;43.260;27.812;2023-02-15T16:01:24;62.47;;;30.07;;
10114;SDS011;5097;43.260;27.812;2023-02-15T16:04:10;101.23;;;46.50;;
10114;SDS011;5097;43.260;27.812;2023-02-15T16:06:56;61.87;;;42.17;;
10114;SDS011;5097;43.260;27.812;2023-02-15T16:09:41;41.07;;;26.47;;
10114;SDS011;5097;43.260;27.812;2023-02-15T16:12:37;36.43;;;24.60;;
10114;SDS011;5097;43.260;27.812;2023-02-15T16:15:25;24.60;;;19.00;;
10114;SDS011;5097;43.260;27.812;2023-02-15T16:18:14;31.93;;;22.50;;
10114;SDS011;5097;43.260;27.812;2023-02-15T16:21:01;30.70;;;19.87;;
10114;SDS011;5097;43.260;27.812;2023-02-15T16:23:59;22.90;;;19.57;;
10114;SDS011;5097;43.260;27.812;2023-02-15T16:27:00;34.30;;;21.80;;
10114;SDS011;5097;43.260;27.812;2023-02-15T16:29:54;24.00;;;17.90;;
10114;SDS011;5097;43.260;27.812;2023-02-15T16:32:40;23.50;;;16.53;;
10114;SDS011;5097;43.260;27.812;2023-02-15T16:35:25;22.40;;;17.60;;
10114;SDS011;5097;43.260;27.812;2023-02-15T16:38:09;31.57;;;16.57;;
10114;SDS011;5097;43.260;27.812;2023-02-15T16:40:54;17.03;;;11.90;;
10114;SDS011;5097;43.260;27.812;2023-02-15T16:43:40;14.70;;;12.60;;
10114;SDS011;5097;43.260;27.812;2023-02-15T16:46:27;21.53;;;13.87;;
10114;SDS011;5097;43.260;27.812;2023-02-15T16:49:17;17.37;;;14.23;;
10114;SDS011;5097;43.260;27.812;2023-02-15T16:52:04;16.93;;;12.17;;
10114;SDS011;5097;43.260;27.812;2023-02-15T16:54:53;16.30;;;12.93;;
10114;SDS011;5097;43.260;27.812;2023-02-15T16:57:40;17.27;;;13.87;;